Westby, MT (59275)

10:15 AM MST on January 31, 2015 (GMT -0700)
MesoWest Comertown Turn-Off MT-5 MP 13.4 MT US MT DOT | Change Station
CLOSE
Current Station
Personal Weather Station
Location: Westby, MT
Elevation: 2100 ft
Nearby Weather Stations
Active Advisory: Winter Weather Advisory

Elev 2100 ft 48.81 °N, 104.25 °W | Updated 30 minutes ago

Snow
Snow
6 °F
Feels Like -13 °F
N
18
Wind Variable Wind from ENE
Gusts 25.0 mph

Today
High -- | Low -- °F
--% Chance of Precip.
Yesterday
High -- | Low -- °F
Precip. -- in
7:28 AM 4:52 PM
Waxing Gibbous, 90% visible
Pressure 30.36 in
Visibility 1.8 miles
Clouds Scattered Clouds 200 ft
Overcast 800 ft
Windchill -13 °F
Dew Point 2 °F
Humidity 84%
Rainfall 0.00 in
Snow Depth Not available.
UV 0 out of 12
Pollen .10 out of 12
Air Quality Not available.
Flu Activity Not available.
METAR KD50 311655Z AUTO 08017G20KT 1 3/4SM -SN SCT002 OVC008 M14/M17 A3036 RMK AO2 P0001

More Conditions Fewer Conditions

Pressure 30.36 in
Visibility 1.8 miles
Clouds Scattered Clouds 200 ft
Overcast 800 ft
Windchill -13 °F
Dew Point 2 °F
Humidity 84%
Rainfall 0.00 in
Snow Depth Not available.
UV 0 out of 12
Pollen .10 out of 12
Air Quality Not available.
Flu Activity Not available.
METAR KD50 311655Z AUTO 08017G20KT 1 3/4SM -SN SCT002 OVC008 M14/M17 A3036 RMK AO2 P0001

More Conditions Fewer Conditions

10-Day Weather Forecast

Almanac

Astronomy

Jan. 31, 2015 Rise Set
Actual Time
Civil Twilight
Nautical Twilight
Astronomical Twilight
Moon
Length of Visible Light
Length of Day
Tomorrow will be .
, % of the Moon is Illuminated

Today's Extremes

State Highs State Lows

Community

WunderPhotos

Upload Photos

1,792,122 photos uploaded!

WunderBlogs® & News

Nearby

Air Quality

  Air Quality AQ Index Pollutant
Not available.

Snow Depth

Station Depth Elevation

Earthquake Activity

City Distance Mag. Time & Date
Minimum magnitude displayed is 2.5.

Coastal Water Temperatures

Place Temperature

Nearby Weather Stations